Montgomery, Missouri
Current Conditions -  °F | °C
As of 3:35 PM on Saturday 22 Nov 2014 (Local Time) from KFYG Reporting Station
Scattered Clouds Scattered Clouds  
Wind Chill: 54°   Ceiling: Unl
Heat Index: 54°   Visibility: 10mi
Dew Point: 50°   Wind: 5mph
Humidity: 88%   Direction: 130°SE
Pressure: 29.94"   Gusts: NA
Location:  39.0022°N, 91.5066°W
Report Text: KFYG 222135Z AUTO 13004KT 10SM FEW017 SCT075 12/10 A2994 RMK AO2
Loading
Personal Weather Stations






























Interactive Weather Map New forecast layout! Learn more

10-Day Weather Forecast

Advertisements
Track Severe Weather on mobile